• Join FlightAware (Why Join?)
  • Login
  • US Flag 
12:39PM EDT


 

Airport Tracker/Info


-or-


 

Live Flight TrackerFlight Track Log ✈ ASQ3813 ✈ 26-Jul-2013 ✈ KEWR - CYYZ

Flight Track Log - Related Links

Times and Time Zones

All times are in EDT time to prevent confusion due to time zone crossing. See the ASQ3813 flight status page for this flight to view local times or setup timezone preferences in your user account.

Time Position Orientation Groundspeed Altitude Reporting Facility
EDT Latitude Longitude Course Direction KTS MPH feet Rate Location/Type
03:20PM 45.8000 -74.0833 254° West 440 506 40,000  Level Toronto Center
03:21PM 45.7667 -74.2500 254° West 450 518 40,000  Level Toronto Center
03:22PM 45.7500 -74.4167 262° West 450 518 40,000  Level Toronto Center
03:23PM 45.7000 -74.6000 249° West 450 518 40,000  Level Toronto Center
03:24PM 45.6833 -74.7667 262° West 450 518 40,000  Level Toronto Center
03:25PM 45.6333 -74.9333 247° West 440 506 40,000  Level Toronto Center
03:26PM 45.6167 -75.1000 262° West 440 506 40,000  Level Toronto Center
03:27PM 45.5833 -75.2667 254° West 440 506 40,000  Level Toronto Center
03:28PM 45.5333 -75.4333 247° West 450 518 40,000  Level Toronto Center
03:29PM 45.5167 -75.6167 263° West 450 518 40,000  Level Toronto Center
03:30PM 45.4667 -75.7833 247° West 450 518 40,000  Level Toronto Center
03:31PM 45.4333 -75.9500 254° West 450 518 40,000 -2,880 Level Toronto Center
03:33PM 45.3798 -76.0694 237° Southwest  Level Estimated
03:40PM 45.1228 -76.6361 237° Southwest  Level Estimated
03:41PM 45.0858 -76.7167 237° Southwest  Level Estimated
03:42PM 45.0488 -76.7971 237° Southwest  Level Estimated
03:43PM 45.0118 -76.8775 237° Southwest  Level Estimated
03:44PM 44.9747 -76.9577 237° Southwest  Level Estimated
03:44PM 40.6667 -74.1833 236° Southwest 189 217 900  Level New York TRACON
03:45PM 44.9375 -77.0378 237° Southwest  Level Estimated
03:45PM 40.6333 -74.2333 229° Southwest 228 262 3,000  Level New York TRACON
03:46PM 44.9003 -77.1179 237° Southwest  Level Estimated
03:46PM 40.7250 -74.2486 353° North 219 252 6,600  Level New York Center
03:47PM 44.8433 -77.2398 237° Southwest  Level Estimated
03:47PM 40.7928 -74.2794 341° North 235 270 7,900  Level New York Center
03:48PM 44.7863 -77.3615 237° Southwest  Level Estimated
03:48PM 40.8644 -74.3217 336° Northwest 275 316 8,200  Level New York Center
03:49PM 44.7291 -77.4830 236° Southwest  Level Estimated
03:49PM 40.9361 -74.3611 337° Northwest 275 316 10,200  Level New York Center
03:50PM 41.0150 -74.3736 353° North 275 316 11,600 1,140 Climbing New York Center
03:51PM 41.1086 -74.3731 360° North 318 366 12,500 1,080 Climbing New York Center
03:52PM 41.1986 -74.3667 North 350 403 13,800 1,200 Climbing New York Center
03:53PM 41.3069 -74.3642 North 350 403 15,000 900 Climbing New York Center
03:54PM 41.4042 -74.3833 352° North 350 403 15,600 900 Climbing New York Center
03:55PM 41.4653 -74.4944 306° West 338 389 16,800 1,080 Climbing New York Center
03:56PM 41.5178 -74.6111 301° West 359 413 17,800 1,080 Climbing New York Center
03:57PM 41.5681 -74.7303 299° West 372 428 19,000 1,080 Climbing New York Center
03:58PM 41.6200 -74.8556 299° West 377 434 20,000 1,020 Climbing New York Center
03:59PM 41.6739 -74.9783 300° West 382 440 21,100 1,020 Climbing New York Center
04:00PM 41.7258 -75.1011 300° West 382 440 22,100 900 Climbing New York Center
04:01PM 41.7794 -75.2269 300° West 382 440 23,000 840 Climbing New York Center
04:02PM 41.8308 -75.3528 299° West 382 440 23,900 900 Climbing New York Center
04:03PM 41.8881 -75.4822 301° West 387 445 24,800 900 Climbing New York Center
04:04PM 41.9394 -75.6083 299° West 387 445 25,800 540 Climbing New York Center
04:05PM 41.9925 -75.7350 299° West 387 445 26,000 60 Climbing New York Center
04:06PM 42.0469 -75.8703 298° West 397 457 26,000  Level New York Center
04:07PM 42.1056 -76.0092 300° West 409 471 26,000  Level New York Center
04:10PM 42.2167 -76.3000 297° West 420 483 26,000  Level Toronto Center
04:11PM 42.2683 -76.4806 291° West 434 499 26,000  Level Cleveland Center
04:12PM 42.3153 -76.6292 293° West 429 494 26,000  Level Cleveland Center
04:13PM 42.3619 -76.7781 293° West 429 494 26,000  Level Cleveland Center
04:14PM 42.4086 -76.9272 293° West 429 494 26,000  Level Cleveland Center
04:15PM 42.4547 -77.0764 293° West 429 494 26,000  Level Cleveland Center
04:16PM 42.5011 -77.2261 293° West 429 494 26,000  Level Cleveland Center
04:17PM 42.5492 -77.3786 293° West 429 494 26,000  Level Cleveland Center
04:18PM 42.5950 -77.5342 292° West 434 499 26,000  Level Cleveland Center
04:19PM 42.6386 -77.6872 291° West 434 499 26,000  Level Cleveland Center
04:20PM 42.6811 -77.8097 295° West 439 505 26,000  Level Cleveland Center
04:21PM 42.7242 -77.9547 292° West 413 475 26,000  Level Cleveland Center
04:22PM 42.7603 -78.0778 292° West 379 436 26,000 -300 Level Cleveland Center
04:23PM 42.7983 -78.2006 293° West 361 415 25,400 -1,080 Descending Cleveland Center
04:24PM 42.8342 -78.3211 292° West 355 409 23,900 -1,500 Descending Cleveland Center
04:25PM 42.8697 -78.4417 292° West 344 396 22,400 -1,560 Descending Cleveland Center
04:26PM 42.8947 -78.5625 286° West 344 396 20,800 -1,560 Descending Cleveland Center
04:27PM 42.9072 -78.6842 278° West 337 388 19,300 -1,500 Descending Cleveland Center
04:28PM 42.9508 -78.7933 299° West 330 380 17,900 -1,560 Descending Cleveland Center
04:29PM 43.0167 -78.8833 315° West 360 414 16,200 -1,620 Descending Toronto Center
04:30PM 43.0833 -79.0000 308° West 340 391 14,700 -1,500 Descending Toronto Center
04:31PM 43.1333 -79.0833 309° West 340 391 13,200 -1,380 Descending Toronto Center
04:32PM 43.2000 -79.1833 312° West 340 391 12,000 -600 Descending Toronto Center
04:33PM 43.2500 -79.2667 309° West 330 380 12,000  Level Toronto Center
04:34PM 43.3167 -79.3500 318° Northwest 320 368 12,000 -720 Level Toronto Center
04:35PM 43.4000 -79.3833 344° North 300 345 10,600 -1,500 Descending Toronto Center
04:36PM 43.4833 -79.4333 336° Northwest 300 345 9,100 -1,140 Descending Toronto Center
04:38PM 43.5500 -79.5667 305° West 240 276 7,200 -1,320 Descending Toronto Center
04:39PM 43.5167 -79.6333 235° Southwest 240 276 5,200 -2,040 Descending Toronto Center
04:40PM 43.5167 -79.7167 270° West 230 265 3,200 -1,200 Descending Toronto Center
04:41PM 43.5667 -79.7000 14° North 210 242 2,800 -780 Descending Toronto Center
04:42PM 43.6167 -79.6500 36° Northeast 190 219 1,700 -960 Descending Toronto Center
04:43PM 43.6333 -79.6167 55° Northeast 140 161 900 -600 Descending Toronto Center
04:44PM 43.6667 -79.5833 36° Northeast 140 161 500 -420 Descending Toronto Center